Time;durP1;ratioP1;P1;durP2;ratioP2;P2;SDS_P1;SDS_P2;PMS_P1;PMS_P2;Temp;Humidity;BMP_temperature;BMP_pressure;BME280_temperature;BME280_humidity;BME280_pressure;Samples;Min_cycle;Max_cycle;Signal;HPM_P1;HPM_P2
2022/03/30 00:00:45;;;;;;;;;57.00;45.50;;;;;14.06;69.62;100271.19;5017972;28;45549;-67
2022/03/30 00:03:11;;;;;;;;;53.25;42.00;;;;;14.03;69.48;100263.44;5036938;28;45274;-68
2022/03/30 00:05:36;;;;;;;;;55.75;43.75;;;;;13.98;69.75;100263.75;5031518;28;45447;-68
2022/03/30 00:08:02;;;;;;;;;61.25;43.75;;;;;13.91;69.32;100258.97;5031269;28;46086;-68
2022/03/30 00:10:28;;;;;;;;;58.25;43.50;;;;;13.86;69.87;100261.06;5031522;28;45961;-68
2022/03/30 00:12:55;;;;;;;;;58.25;46.25;;;;;13.79;69.80;100258.81;5036035;28;45273;-68
2022/03/30 00:15:20;;;;;;;;;63.25;45.50;;;;;13.74;69.97;100262.69;5032623;28;45330;-68
2022/03/30 00:17:46;;;;;;;;;56.50;41.50;;;;;13.69;70.62;100257.69;5031458;28;46166;-68
2022/03/30 00:20:11;;;;;;;;;57.67;43.00;;;;;13.67;70.50;100266.66;5031206;28;47461;-68
2022/03/30 00:22:38;;;;;;;;;2.25;0.00;;;;;13.60;70.67;100255.63;5031525;28;45524;-68
2022/03/30 00:25:06;;;;;;;;;62.00;46.75;;;;;13.57;71.04;100267.25;5034024;28;45372;-68
2022/03/30 00:27:31;;;;;;;;;51.00;39.50;;;;;13.50;70.98;100265.91;5033375;28;45515;-68
2022/03/30 00:29:56;;;;;;;;;53.75;43.00;;;;;13.47;71.31;100260.00;5036306;28;45445;-68
2022/03/30 00:32:22;;;;;;;;;60.50;46.00;;;;;13.45;71.30;100261.88;5031288;28;45436;-68
2022/03/30 00:34:47;;;;;;;;;62.33;47.67;;;;;13.43;71.56;100261.13;5030880;28;54329;-68
2022/03/30 00:37:13;;;;;;;;;56.75;44.50;;;;;13.39;71.01;100257.81;5032294;28;46022;-68
2022/03/30 00:39:38;;;;;;;;;60.75;47.00;;;;;13.35;70.66;100251.03;5034680;28;45450;-68
2022/03/30 00:42:13;;;;;;;;;62.25;48.25;;;;;13.30;71.08;100248.69;5031576;28;45362;-68
2022/03/30 00:44:39;;;;;;;;;61.50;43.75;;;;;13.26;71.91;100249.84;5031097;28;45268;-68
2022/03/30 00:47:14;;;;;;;;;59.50;47.00;;;;;13.22;71.77;100250.97;5030891;28;47027;-68
2022/03/30 00:49:40;;;;;;;;;65.75;48.00;;;;;13.20;72.02;100250.16;5030400;28;45553;-68
2022/03/30 00:52:05;;;;;;;;;61.00;45.75;;;;;13.17;71.74;100245.09;5033355;28;46363;-68
2022/03/30 00:54:31;;;;;;;;;63.25;46.50;;;;;13.18;72.33;100240.66;5033256;28;45334;-68
2022/03/30 00:56:57;;;;;;;;;63.25;46.50;;;;;13.18;71.92;100227.47;5031424;28;46099;-68
2022/03/30 00:59:23;;;;;;;;;61.50;48.00;;;;;13.14;72.48;100224.16;5030685;28;45349;-68
2022/03/30 01:01:48;;;;;;;;;62.50;48.00;;;;;13.15;72.93;100223.22;5030652;28;45404;-68
2022/03/30 01:04:14;;;;;;;;;64.25;49.25;;;;;13.17;72.90;100218.69;5032181;28;45543;-68
2022/03/30 01:06:39;;;;;;;;;64.25;47.50;;;;;13.17;72.76;100213.44;5033894;28;46342;-68
2022/03/30 01:09:04;;;;;;;;;61.00;47.00;;;;;13.20;72.56;100212.38;5030936;28;48449;-68
2022/03/30 01:11:30;;;;;;;;;66.50;48.50;;;;;13.22;73.20;100202.63;5030951;28;45727;-68
2022/03/30 01:13:55;;;;;;;;;63.50;49.75;;;;;13.24;72.95;100198.09;5030513;28;45465;-68
2022/03/30 01:16:23;;;;;;;;;62.25;48.75;;;;;13.26;72.90;100197.06;5030719;28;46184;-68
2022/03/30 01:18:48;;;;;;;;;64.75;49.00;;;;;13.29;72.86;100196.00;5019077;28;45350;-67
2022/03/30 01:21:15;;;;;;;;;64.00;48.67;;;;;13.31;73.53;100187.06;5030969;28;51045;-68
2022/03/30 01:23:40;;;;;;;;;59.00;47.25;;;;;13.34;72.98;100191.28;5030529;28;45519;-68
2022/03/30 01:26:06;;;;;;;;;61.75;48.50;;;;;13.35;73.46;100179.78;5029899;28;47123;-68
2022/03/30 01:28:32;;;;;;;;;64.50;47.50;;;;;13.38;73.28;100186.66;5030579;28;46044;-67
2022/03/30 01:33:45;;;;;;;;;62.50;46.50;;;;;13.42;73.59;100180.25;4992094;28;45725;-68
2022/03/30 01:36:11;;;;;;;;;61.00;47.25;;;;;13.42;73.29;100183.75;4988754;28;46377;-67
2022/03/30 01:38:36;;;;;;;;;63.75;46.25;;;;;13.42;73.19;100175.81;4988559;28;45635;-67
2022/03/30 01:41:02;;;;;;;;;65.00;49.75;;;;;13.45;73.41;100172.13;4988288;28;45391;-68
2022/03/30 01:43:28;;;;;;;;;63.25;48.25;;;;;13.46;73.52;100168.53;4988380;28;45535;-68
2022/03/30 01:45:55;;;;;;;;;63.25;49.00;;;;;13.46;73.49;100161.47;4992346;28;46384;-68
2022/03/30 01:48:20;;;;;;;;;65.25;47.75;;;;;13.49;73.31;100163.91;4989578;28;45939;-68
2022/03/30 01:50:46;;;;;;;;;63.25;47.25;;;;;13.50;73.81;100162.97;4988647;28;45507;-68
2022/03/30 01:53:11;;;;;;;;;66.75;48.00;;;;;13.51;73.60;100159.38;4988168;28;45338;-68
2022/03/30 01:55:37;;;;;;;;;67.75;49.50;;;;;13.50;73.92;100162.13;4987993;28;45850;-68
2022/03/30 01:58:02;;;;;;;;;66.00;49.00;;;;;13.52;73.35;100157.56;4989436;28;45628;-68
2022/03/30 02:00:28;;;;;;;;;64.00;48.25;;;;;13.51;73.46;100153.25;4991721;28;45853;-68
2022/03/30 02:02:53;;;;;;;;;66.75;51.00;;;;;13.51;73.88;100154.09;4988226;28;45575;-68
2022/03/30 02:05:19;;;;;;;;;61.50;49.00;;;;;13.51;73.53;100161.16;4992056;28;46362;-68
2022/03/30 02:07:45;;;;;;;;;64.50;48.00;;;;;13.47;74.00;100157.06;4992072;28;45648;-68
2022/03/30 02:10:11;;;;;;;;;63.75;48.00;;;;;13.43;73.64;100150.28;5001789;28;45407;-68
2022/03/30 02:12:37;;;;;;;;;66.75;47.25;;;;;13.38;73.95;100157.63;5034281;28;45342;-68
2022/03/30 02:15:04;;;;;;;;;62.50;49.25;;;;;13.32;73.85;100148.31;5030142;28;46249;-68
2022/03/30 02:17:30;;;;;;;;;70.75;49.00;;;;;13.25;73.66;100142.56;5029488;28;45330;-68
2022/03/30 02:19:55;;;;;;;;;68.00;50.50;;;;;13.20;73.53;100154.31;5029967;28;45441;-68
2022/03/30 02:22:22;;;;;;;;;63.50;48.50;;;;;13.15;73.65;100144.06;5029895;28;45348;-68
2022/03/30 02:24:48;;;;;;;;;64.50;48.25;;;;;13.09;73.98;100135.69;5033901;28;47198;-67
2022/03/30 02:27:14;;;;;;;;;64.75;48.25;;;;;13.02;73.88;100127.31;5029976;28;45540;-68
2022/03/30 02:29:40;;;;;;;;;62.50;50.00;;;;;12.95;74.03;100131.28;5029765;28;45523;-68
2022/03/30 02:32:06;;;;;;;;;65.00;48.25;;;;;12.87;74.13;100126.47;5029846;28;45249;-68
2022/03/30 02:34:31;;;;;;;;;66.50;49.50;;;;;12.79;74.30;100134.88;5029369;28;46044;-68
2022/03/30 02:36:56;;;;;;;;;67.50;49.00;;;;;12.74;74.42;100130.84;5033163;28;47589;-68
2022/03/30 02:39:22;;;;;;;;;60.50;44.25;;;;;12.69;74.89;100127.63;5030973;28;45291;-68
2022/03/30 02:41:47;;;;;;;;;64.50;48.00;;;;;12.64;74.55;100127.91;5029819;28;45496;-68
2022/03/30 02:44:13;;;;;;;;;64.75;46.75;;;;;12.58;74.62;100112.47;5028743;28;46163;-68
2022/03/30 02:46:39;;;;;;;;;59.25;47.00;;;;;12.53;75.18;100118.03;5029476;28;45972;-68
2022/03/30 02:49:05;;;;;;;;;60.25;47.25;;;;;12.49;75.25;100111.25;5031383;28;45412;-68
2022/03/30 02:51:31;;;;;;;;;64.75;48.25;;;;;12.47;75.52;100110.47;5031505;28;45683;-68
2022/03/30 02:53:57;;;;;;;;;68.00;49.25;;;;;12.47;75.74;100107.81;5029885;28;45533;-68
2022/03/30 02:56:22;;;;;;;;;71.00;51.50;;;;;12.49;75.68;100111.25;5029247;28;45436;-68
2022/03/30 02:58:48;;;;;;;;;60.50;47.25;;;;;12.50;75.71;100112.94;5029088;28;45381;-68
2022/03/30 03:01:13;;;;;;;;;64.75;49.75;;;;;12.52;75.99;100107.56;5030623;28;45525;-68
2022/03/30 03:03:38;;;;;;;;;65.00;49.75;;;;;12.56;76.16;100105.59;5032277;28;46219;-67
2022/03/30 03:06:05;;;;;;;;;59.00;46.75;;;;;12.58;75.94;100106.31;5029708;28;45315;-68
2022/03/30 03:08:30;;;;;;;;;64.50;49.00;;;;;12.60;75.90;100104.47;5030493;28;45419;-68
2022/03/30 03:10:56;;;;;;;;;64.25;48.50;;;;;12.61;76.04;100104.34;5022800;28;45408;-68
2022/03/30 03:13:21;;;;;;;;;69.50;50.00;;;;;12.64;75.96;100111.25;5032032;28;46422;-68
2022/03/30 03:15:47;;;;;;;;;63.25;46.75;;;;;12.66;76.00;100110.19;5036763;28;45536;-68
2022/03/30 03:18:13;;;;;;;;;62.00;48.00;;;;;12.68;76.12;100110.09;5033586;28;45215;-68
2022/03/30 03:20:42;;;;;;;;;63.00;48.00;;;;;12.69;76.48;100115.28;5032188;28;45449;-67
2022/03/30 03:23:08;;;;;;;;;65.50;49.50;;;;;12.71;76.29;100102.84;5031940;28;45605;-67
2022/03/30 03:25:34;;;;;;;;;66.25;50.25;;;;;12.72;76.32;100104.53;5032245;28;45531;-68
2022/03/30 03:28:01;;;;;;;;;63.50;47.75;;;;;12.74;76.75;100104.47;5035652;28;45500;-68
2022/03/30 03:30:27;;;;;;;;;62.25;49.25;;;;;12.74;76.68;100102.69;5033972;28;45504;-68
2022/03/30 03:32:52;;;;;;;;;65.25;48.50;;;;;12.75;76.62;100098.25;5018106;28;46361;-68
2022/03/30 03:35:19;;;;;;;;;69.25;50.00;;;;;12.75;76.44;100095.63;5032306;28;45503;-68
2022/03/30 03:37:44;;;;;;;;;69.25;50.50;;;;;12.76;76.48;100094.66;5032083;28;45478;-68
2022/03/30 03:40:10;;;;;;;;;63.00;48.75;;;;;12.77;76.44;100094.56;5034121;28;45420;-68
2022/03/30 03:42:37;;;;;;;;;62.50;49.25;;;;;12.78;76.51;100088.34;5034779;28;46355;-68
2022/03/30 03:45:04;;;;;;;;;64.75;49.75;;;;;12.79;76.03;100076.88;5032627;28;45359;-68
2022/03/30 03:47:29;;;;;;;;;61.00;48.50;;;;;12.77;76.69;100072.63;5031957;28;45558;-68
2022/03/30 03:49:54;;;;;;;;;66.75;49.75;;;;;12.76;76.51;100081.47;5031976;28;45768;-68
2022/03/30 03:52:20;;;;;;;;;63.50;49.25;;;;;12.77;76.64;100091.91;5032248;28;47604;-68
2022/03/30 03:54:45;;;;;;;;;66.75;50.00;;;;;12.78;76.17;100082.22;5036145;28;45436;-68
2022/03/30 03:57:10;;;;;;;;;69.00;50.00;;;;;12.78;76.47;100085.69;5032498;28;45254;-68
2022/03/30 03:59:36;;;;;;;;;68.50;51.00;;;;;12.78;75.98;100079.59;5031651;28;45341;-68
2022/03/30 04:02:07;;;;;;;;;66.50;50.75;;;;;12.78;76.46;100074.31;5031278;28;46160;-68
2022/03/30 04:04:32;;;;;;;;;74.75;53.75;;;;;12.77;76.53;100068.19;5031757;28;45386;-68
2022/03/30 04:06:58;;;;;;;;;65.50;51.75;;;;;12.79;76.57;100066.31;5035453;28;45571;-68
2022/03/30 04:09:23;;;;;;;;;73.00;52.25;;;;;12.81;76.57;100074.13;5032986;28;46061;-68
2022/03/30 04:11:48;;;;;;;;;67.25;50.75;;;;;12.81;76.79;100068.84;5031931;28;45668;-68
2022/03/30 04:14:17;;;;;;;;;70.75;53.50;;;;;12.84;76.67;100079.19;5031590;28;45368;-68
2022/03/30 04:16:43;;;;;;;;;67.75;51.50;;;;;12.84;76.75;100073.91;5031583;28;45381;-68
2022/03/30 04:19:08;;;;;;;;;72.50;53.00;;;;;12.86;76.78;100071.22;5033418;28;45500;-68
2022/03/30 04:21:33;;;;;;;;;67.50;49.75;;;;;12.90;76.76;100070.91;5033991;28;46124;-67
2022/03/30 04:23:59;;;;;;;;;71.25;51.75;;;;;12.90;76.86;100068.28;5031049;28;45405;-68
2022/03/30 04:26:24;;;;;;;;;71.50;52.25;;;;;12.93;76.74;100068.06;5031491;28;45297;-68
2022/03/30 04:28:49;;;;;;;;;71.75;52.25;;;;;12.95;76.89;100068.00;5031651;28;45539;-68
2022/03/30 04:31:15;;;;;;;;;70.50;50.75;;;;;12.97;76.90;100068.75;5032365;28;46166;-68
2022/03/30 04:33:40;;;;;;;;;69.25;51.75;;;;;13.00;76.86;100065.91;5034634;28;45349;-68
2022/03/30 04:36:06;;;;;;;;;68.25;51.75;;;;;13.00;76.79;100063.28;5031910;28;45379;-69
2022/03/30 04:38:32;;;;;;;;;67.75;49.00;;;;;13.02;76.72;100066.66;5031205;28;45320;-68
2022/03/30 04:40:58;;;;;;;;;63.25;49.75;;;;;13.02;76.87;100064.84;5030931;28;45310;-67
2022/03/30 04:43:23;;;;;;;;;72.25;52.50;;;;;13.00;77.03;100058.00;5031391;28;45362;-68
2022/03/30 04:45:48;;;;;;;;;72.25;50.75;;;;;13.03;77.04;100058.63;5035767;28;45333;-68
2022/03/30 04:48:14;;;;;;;;;72.75;53.75;;;;;13.03;77.00;100055.16;5031621;28;45415;-68
2022/03/30 04:50:39;;;;;;;;;70.67;51.67;;;;;13.04;77.06;100048.94;5030770;28;45322;-68
2022/03/30 04:53:05;;;;;;;;;69.00;51.25;;;;;13.02;77.06;100051.66;5030684;28;45373;-68
2022/03/30 04:55:31;;;;;;;;;73.50;50.50;;;;;13.02;77.48;100050.81;5030869;28;45510;-68
2022/03/30 04:57:56;;;;;;;;;65.50;50.25;;;;;13.02;77.52;100040.28;5034911;28;45443;-68
2022/03/30 05:00:22;;;;;;;;;68.75;50.25;;;;;13.01;77.65;100043.88;5031960;28;46132;-68
2022/03/30 05:02:47;;;;;;;;;73.25;52.75;;;;;13.01;77.88;100036.78;5030834;28;45374;-68
2022/03/30 05:05:12;;;;;;;;;70.00;49.00;;;;;13.02;77.81;100040.28;5030897;28;45408;-68
2022/03/30 05:07:38;;;;;;;;;71.50;52.25;;;;;13.02;78.39;100035.84;5030596;28;45307;-68
2022/03/30 05:10:06;;;;;;;;;71.00;51.75;;;;;13.03;78.01;100041.97;5033160;28;46018;-68
2022/03/30 05:12:32;;;;;;;;;72.25;54.00;;;;;13.02;77.50;100041.13;5033190;28;46161;-67
2022/03/30 05:14:57;;;;;;;;;71.25;53.50;;;;;13.00;77.69;100029.00;5031307;28;45350;-68
2022/03/30 05:17:23;;;;;;;;;67.25;51.25;;;;;12.98;77.80;100033.50;5030264;28;45955;-67
2022/03/30 05:19:49;;;;;;;;;70.00;51.00;;;;;12.99;78.09;100029.91;5030213;28;45983;-68
2022/03/30 05:22:14;;;;;;;;;75.50;52.25;;;;;12.98;78.06;100036.97;5031620;28;45361;-68
2022/03/30 05:24:40;;;;;;;;;72.50;53.25;;;;;12.98;78.40;100039.63;5034361;28;45517;-68
2022/03/30 05:27:05;;;;;;;;;71.25;52.50;;;;;12.97;78.26;100037.94;5031016;28;45692;-68
2022/03/30 05:29:31;;;;;;;;;68.00;52.50;;;;;12.96;78.10;100038.88;5030131;28;47276;-68
2022/03/30 05:31:57;;;;;;;;;75.50;54.00;;;;;12.98;78.47;100041.41;5030097;28;45543;-68
2022/03/30 05:34:24;;;;;;;;;70.00;53.25;;;;;12.98;78.55;100038.78;5030327;28;45915;-68
2022/03/30 05:36:50;;;;;;;;;63.75;51.25;;;;;12.98;78.74;100039.63;5035166;28;45460;-68
2022/03/30 05:39:15;;;;;;;;;66.75;50.75;;;;;12.99;79.02;100043.94;5030934;28;46231;-68
2022/03/30 05:41:40;;;;;;;;;74.50;53.00;;;;;12.98;78.71;100033.50;5030084;28;45350;-69
2022/03/30 05:44:06;;;;;;;;;78.25;56.75;;;;;13.00;78.42;100042.19;5030002;28;45468;-67
2022/03/30 05:46:31;;;;;;;;;73.00;56.00;;;;;13.01;78.66;100041.22;5030221;28;45345;-67
2022/03/30 05:48:57;;;;;;;;;70.00;54.00;;;;;13.02;78.93;100045.56;5033919;28;45975;-67
2022/03/30 05:51:22;;;;;;;;;71.50;52.75;;;;;13.04;78.70;100039.22;5031251;28;45441;-68
2022/03/30 05:53:47;;;;;;;;;72.25;54.25;;;;;13.04;78.73;100038.38;5030506;28;45455;-67
2022/03/30 05:56:13;;;;;;;;;68.25;52.50;;;;;13.04;79.24;100049.78;5030363;28;45393;-67
2022/03/30 05:58:39;;;;;;;;;75.75;53.00;;;;;13.05;78.97;100048.84;5029632;28;45432;-67
2022/03/30 06:01:04;;;;;;;;;73.25;53.50;;;;;13.06;79.30;100047.06;5032163;28;45370;-66
2022/03/30 06:03:30;;;;;;;;;73.00;52.25;;;;;13.06;79.07;100041.78;5032204;28;45301;-67
2022/03/30 06:05:55;;;;;;;;;71.33;52.00;;;;;13.07;78.83;100046.09;5030249;28;45326;-67
2022/03/30 06:08:20;;;;;;;;;75.25;54.50;;;;;13.09;78.94;100051.28;5030379;28;52456;-67
2022/03/30 06:10:46;;;;;;;;;71.75;51.25;;;;;13.09;79.04;100048.63;5021964;28;50084;-68
2022/03/30 06:13:11;;;;;;;;;75.25;56.25;;;;;13.11;78.85;100054.69;5031355;28;45463;-69
2022/03/30 06:15:38;;;;;;;;;73.50;56.00;;;;;13.09;79.11;100054.75;5032879;28;45292;-67
2022/03/30 06:18:10;;;;;;;;;67.50;54.25;;;;;13.12;79.16;100057.22;5030172;28;46186;-68
2022/03/30 06:20:36;;;;;;;;;73.50;54.50;;;;;13.13;78.93;100058.06;5029865;28;45416;-69
2022/03/30 06:23:02;;;;;;;;;77.00;55.75;;;;;13.15;79.15;100058.78;5029714;28;45559;-68
2022/03/30 06:25:27;;;;;;;;;74.25;52.75;;;;;13.14;79.09;100052.66;5029582;28;45641;-69
2022/03/30 06:27:53;;;;;;;;;73.75;54.50;;;;;13.17;79.26;100063.03;5033446;28;46305;-69
2022/03/30 06:30:18;;;;;;;;;79.75;56.25;;;;;13.18;79.12;100059.44;5030856;28;45483;-69
2022/03/30 06:32:49;;;;;;;;;76.00;54.25;;;;;13.18;78.93;100064.72;5029941;28;45425;-69
2022/03/30 06:35:16;;;;;;;;;72.00;54.75;;;;;13.21;78.90;100069.84;5029542;28;45460;-67
2022/03/30 06:37:41;;;;;;;;;73.00;55.25;;;;;13.23;78.88;100061.81;5029264;28;46176;-67
2022/03/30 06:40:07;;;;;;;;;76.75;56.50;;;;;13.25;79.09;100059.91;5031515;28;45460;-67
2022/03/30 06:42:33;;;;;;;;;76.50;55.25;;;;;13.28;78.55;100060.56;5032113;28;45366;-67
2022/03/30 06:44:58;;;;;;;;;78.75;57.50;;;;;13.26;78.70;100059.84;5032363;28;45323;-69
2022/03/30 06:47:23;;;;;;;;;74.33;56.00;;;;;13.24;78.65;100058.22;5031761;28;45855;-69
2022/03/30 06:49:49;;;;;;;;;76.75;58.00;;;;;13.24;78.63;100059.06;5032644;28;45514;-69
2022/03/30 06:52:14;;;;;;;;;75.00;55.00;;;;;13.25;78.60;100059.91;5033921;28;45732;-67
2022/03/30 06:54:39;;;;;;;;;78.33;57.67;;;;;13.26;78.68;100070.41;5036368;28;45806;-67
2022/03/30 06:57:06;;;;;;;;;76.00;58.25;;;;;13.27;78.74;100064.16;5032970;28;47004;-69
2022/03/30 06:59:32;;;;;;;;;81.25;57.00;;;;;13.30;78.81;100066.59;5032886;28;45428;-69
2022/03/30 07:01:58;;;;;;;;;77.00;57.00;;;;;13.35;78.58;100071.56;5032609;28;45493;-69
2022/03/30 07:04:24;;;;;;;;;74.50;56.00;;;;;13.39;78.30;100069.59;5032701;28;45497;-69
2022/03/30 07:12:17;;;;;;;;;75.25;54.25;;;;;13.42;78.49;100072.88;5034139;28;45452;-69
2022/03/30 07:14:46;;;;;;;;;74.67;54.67;;;;;13.42;78.35;100070.25;5032452;28;45454;-69
2022/03/30 07:17:11;;;;;;;;;69.50;54.25;;;;;13.45;78.60;100074.47;5032060;28;46170;-69
2022/03/30 07:19:38;;;;;;;;;74.50;56.25;;;;;13.47;78.30;100072.59;5032355;28;45341;-69
2022/03/30 07:22:03;;;;;;;;;73.00;54.00;;;;;13.45;77.69;100075.31;5034829;28;45452;-69
2022/03/30 07:24:29;;;;;;;;;77.75;57.75;;;;;13.43;77.65;100073.72;5034628;28;45421;-69
2022/03/30 07:26:54;;;;;;;;;72.00;55.00;;;;;13.36;77.54;100069.78;5032331;28;55593;-69
2022/03/30 07:29:19;;;;;;;;;73.50;55.25;;;;;13.30;77.54;100060.47;5031572;28;51360;-69
2022/03/30 07:31:45;;;;;;;;;74.75;56.00;;;;;13.25;78.18;100057.28;5032303;28;45460;-69
2022/03/30 07:34:10;;;;;;;;;70.75;53.00;;;;;13.24;78.71;100063.50;5034075;28;45524;-69
2022/03/30 07:36:38;;;;;;;;;74.00;54.75;;;;;13.23;78.69;100061.81;5034903;28;46262;-69
2022/03/30 07:39:03;;;;;;;;;77.50;56.00;;;;;13.21;78.68;100061.94;5032756;28;45381;-69
2022/03/30 07:41:28;;;;;;;;;76.33;56.67;;;;;13.20;78.42;100059.34;5032151;28;47169;-68
2022/03/30 07:43:54;;;;;;;;;73.67;55.00;;;;;13.18;78.50;100059.44;5031728;28;54540;-69
2022/03/30 07:46:19;;;;;;;;;74.00;56.67;;;;;13.19;78.95;100063.78;5032029;28;48990;-69
2022/03/30 07:48:45;;;;;;;;;74.25;56.00;;;;;13.20;78.89;100060.19;5035889;28;45679;-69
2022/03/30 07:51:10;;;;;;;;;76.00;54.50;;;;;13.20;78.60;100061.97;5032669;28;45827;-68
2022/03/30 07:53:36;;;;;;;;;70.25;55.50;;;;;13.19;79.01;100058.50;5032346;28;45324;-69
2022/03/30 07:56:01;;;;;;;;;79.33;57.67;;;;;13.20;78.59;100064.63;5031458;28;46989;-69
2022/03/30 07:58:26;;;;;;;;;75.50;54.00;;;;;13.18;78.73;100051.53;5030202;28;45365;-69
2022/03/30 08:00:52;;;;;;;;;77.75;58.25;;;;;13.17;78.62;100064.84;5036511;28;45360;-69
2022/03/30 08:03:18;;;;;;;;;73.00;56.00;;;;;13.15;78.69;100056.16;5032907;28;45364;-68
2022/03/30 08:05:43;;;;;;;;;81.25;57.00;;;;;13.13;78.57;100064.16;5031555;28;46145;-69
2022/03/30 08:08:09;;;;;;;;;77.75;56.00;;;;;13.09;78.41;100062.66;5031610;28;45377;-67
2022/03/30 08:10:35;;;;;;;;;73.50;56.00;;;;;13.07;78.85;100057.50;5031678;28;45484;-69
2022/03/30 08:13:01;;;;;;;;;74.75;55.25;;;;;13.07;78.75;100060.13;5034042;28;45417;-69
2022/03/30 08:15:27;;;;;;;;;70.50;54.00;;;;;13.06;78.80;100057.59;5033149;28;46294;-69
2022/03/30 08:17:54;;;;;;;;;72.50;55.75;;;;;13.07;78.56;100056.66;5032146;28;45836;-69
2022/03/30 08:23:05;;;;;;;;;80.75;59.00;;;;;13.05;78.42;100071.75;5031747;28;45508;-69
2022/03/30 08:25:30;;;;;;;;;77.25;57.75;;;;;13.02;78.56;100066.66;5030890;28;45522;-67
2022/03/30 08:27:56;;;;;;;;;76.33;57.00;;;;;13.00;78.93;100060.63;5035248;28;45437;-68
2022/03/30 08:30:21;;;;;;;;;79.67;59.00;;;;;12.97;78.94;100060.81;5032711;28;45444;-69
2022/03/30 08:32:47;;;;;;;;;73.25;54.75;;;;;13.00;79.42;100063.28;5031080;28;45527;-69
2022/03/30 08:35:12;;;;;;;;;76.75;58.25;;;;;13.02;79.41;100061.38;5030837;28;47024;-69
2022/03/30 08:37:38;;;;;;;;;81.00;57.50;;;;;13.03;79.57;100063.06;5031576;28;45488;-68
2022/03/30 08:40:04;;;;;;;;;80.75;59.75;;;;;13.02;79.56;100061.38;5033730;28;45588;-69
2022/03/30 08:42:29;;;;;;;;;76.50;57.25;;;;;13.01;79.60;100065.81;5033269;28;45407;-69
2022/03/30 08:44:55;;;;;;;;;80.00;56.50;;;;;13.01;79.36;100063.16;5031722;28;45999;-69
2022/03/30 08:47:20;;;;;;;;;78.00;57.25;;;;;13.00;78.91;100061.47;5030847;28;45471;-68
2022/03/30 08:49:47;;;;;;;;;82.75;60.25;;;;;12.98;79.94;100063.34;5031203;28;45485;-69
2022/03/30 08:52:13;;;;;;;;;79.00;58.00;;;;;13.00;79.40;100068.56;5032411;28;45522;-68
2022/03/30 08:54:43;;;;;;;;;79.00;56.25;;;;;13.01;79.23;100064.97;5034076;28;46103;-69
2022/03/30 08:57:10;;;;;;;;;82.00;58.50;;;;;13.00;79.80;100066.75;5031381;28;45374;-69
2022/03/30 08:59:35;;;;;;;;;81.75;59.25;;;;;13.01;80.11;100064.97;5031190;28;45309;-68
2022/03/30 09:02:00;;;;;;;;;81.50;58.75;;;;;13.03;79.85;100061.28;5030913;28;45406;-69
2022/03/30 09:04:26;;;;;;;;;86.75;61.25;;;;;13.03;79.91;100073.63;5030544;28;45554;-69
2022/03/30 09:06:53;;;;;;;;;76.25;57.75;;;;;13.03;80.47;100063.91;5035019;28;45587;-68
2022/03/30 09:09:35;;;;;;;;;75.00;58.50;;;;;13.02;79.68;100062.22;5031404;28;45524;-69
2022/03/30 09:12:06;;;;;;;;;76.50;56.75;;;;;13.00;79.73;100058.84;5033742;28;45424;-69
2022/03/30 09:14:34;;;;;;;;;80.25;57.75;;;;;13.00;80.10;100058.00;5030281;28;47091;-69
2022/03/30 09:17:02;;;;;;;;;77.75;55.00;;;;;13.02;80.07;100064.00;5030887;28;45447;-69
2022/03/30 09:19:29;;;;;;;;;78.00;59.75;;;;;13.02;80.30;100064.00;5030697;28;45466;-69
2022/03/30 09:21:57;;;;;;;;;81.00;58.00;;;;;13.02;81.06;100067.50;5034422;28;45354;-69
2022/03/30 09:24:26;;;;;;;;;73.25;58.25;;;;;13.03;80.62;100068.34;5032019;28;46370;-69
2022/03/30 09:26:53;;;;;;;;;80.50;57.75;;;;;13.07;80.81;100064.56;5034285;28;45861;-68
2022/03/30 09:29:20;;;;;;;;;79.00;58.25;;;;;13.11;80.78;100067.88;5030270;28;45550;-69
2022/03/30 09:31:48;;;;;;;;;79.75;57.25;;;;;13.15;80.76;100058.78;5030408;28;45414;-68
2022/03/30 09:34:13;;;;;;;;;79.75;56.50;;;;;13.22;79.96;100063.63;5031905;28;46221;-69
2022/03/30 09:36:40;;;;;;;;;79.25;57.00;;;;;13.24;79.40;100056.44;5033564;28;45603;-68
2022/03/30 09:39:08;;;;;;;;;75.50;56.25;;;;;13.30;80.11;100060.47;5030858;28;45360;-68
2022/03/30 09:41:51;;;;;;;;;79.75;59.50;;;;;13.44;79.99;100062.22;5030518;28;45572;-68
2022/03/30 09:44:18;;;;;;;;;78.00;55.25;;;;;13.61;79.50;100056.66;5030450;28;46189;-69
2022/03/30 09:47:05;;;;;;;;;82.25;60.25;;;;;13.87;79.77;100056.72;5029982;28;45880;-68
2022/03/30 09:49:54;;;;;;;;;79.00;56.75;;;;;14.20;79.29;100066.78;5030242;28;45307;-69
2022/03/30 09:52:21;;;;;;;;;72.00;52.50;;;;;14.42;78.59;100059.09;5030338;28;45349;-68
2022/03/30 09:54:51;;;;;;;;;75.00;56.50;;;;;14.62;78.61;100060.38;5018627;28;47805;-67
2022/03/30 09:57:21;;;;;;;;;79.50;55.50;;;;;14.79;77.75;100065.31;5030943;28;46080;-68
2022/03/30 10:00:14;;;;;;;;;80.25;56.25;;;;;15.00;77.48;100075.31;5034529;28;45475;-69
2022/03/30 10:02:45;;;;;;;;;79.25;55.75;;;;;15.22;76.58;100064.84;5029968;28;45917;-69
2022/03/30 10:05:13;;;;;;;;;81.25;61.25;;;;;15.44;76.75;100060.63;5029763;28;45444;-69
2022/03/30 10:07:39;;;;;;;;;79.25;58.25;;;;;15.70;76.32;100056.06;5029782;28;45482;-69
2022/03/30 10:10:06;;;;;;;;;74.50;56.50;;;;;15.90;75.89;100053.59;5032897;28;45452;-69
2022/03/30 10:12:31;;;;;;;;;78.50;56.75;;;;;16.08;75.52;100047.88;5032301;28;45456;-69
2022/03/30 10:14:57;;;;;;;;;78.00;57.00;;;;;16.17;73.98;100052.44;5030201;28;46123;-69
2022/03/30 10:17:24;;;;;;;;;74.00;53.00;;;;;16.15;73.20;100043.78;5029546;28;45359;-69
2022/03/30 10:19:52;;;;;;;;;75.75;56.00;;;;;16.12;73.07;100046.66;5029707;28;45231;-69
2022/03/30 10:22:43;;;;;;;;;76.50;56.50;;;;;15.99;73.01;100041.47;5029809;28;45778;-68
2022/03/30 10:25:34;;;;;;;;;77.50;55.75;;;;;15.99;73.38;100037.97;5018275;28;46189;-69
2022/03/30 10:28:25;;;;;;;;;72.50;55.00;;;;;16.29;73.41;100034.78;5018415;28;45433;-69
2022/03/30 10:30:57;;;;;;;;;71.00;53.50;;;;;16.65;72.67;100041.63;5018401;28;45280;-69
2022/03/30 10:33:29;;;;;;;;;70.25;52.25;;;;;17.00;71.46;100033.53;5030839;28;45606;-69
2022/03/30 10:35:56;;;;;;;;;70.75;52.00;;;;;17.31;70.89;100028.38;5033622;28;45435;-69
2022/03/30 10:38:22;;;;;;;;;74.50;52.00;;;;;17.61;70.05;100032.97;5029312;28;45315;-69
2022/03/30 10:40:48;;;;;;;;;65.75;49.00;;;;;17.90;68.79;100036.69;5029485;28;45491;-68
2022/03/30 10:43:25;;;;;;;;;70.00;52.75;;;;;18.06;68.24;100033.56;5030544;28;45390;-68
2022/03/30 10:45:50;;;;;;;;;68.75;50.50;;;;;18.12;67.07;100032.25;5018279;28;45343;-69
2022/03/30 10:48:28;;;;;;;;;72.50;51.75;;;;;18.13;67.11;100031.25;5030132;28;45509;-68
2022/03/30 10:50:54;;;;;;;;;68.50;51.75;;;;;18.08;66.97;100026.31;5033864;28;45386;-68
2022/03/30 10:53:31;;;;;;;;;69.25;50.50;;;;;17.90;66.15;100015.44;5029292;28;45532;-68
2022/03/30 10:56:09;;;;;;;;;70.50;51.00;;;;;17.73;66.79;100016.88;5028980;28;47017;-69
2022/03/30 10:58:59;;;;;;;;;65.00;49.25;;;;;17.71;66.49;100013.47;5029146;28;46068;-69
2022/03/30 11:01:30;;;;;;;;;68.00;50.75;;;;;17.82;67.14;100003.78;5029564;28;45772;-68
2022/03/30 11:03:55;;;;;;;;;70.00;50.25;;;;;18.02;66.68;100008.25;5033068;28;45539;-69
2022/03/30 11:06:21;;;;;;;;;67.75;47.50;;;;;18.09;65.80;100001.41;5030137;28;46032;-68
2022/03/30 11:08:51;;;;;;;;;69.50;51.75;;;;;18.13;65.50;100004.66;5029128;28;45283;-68
2022/03/30 11:11:30;;;;;;;;;70.25;53.75;;;;;18.34;66.12;99992.16;5029129;28;45336;-68
2022/03/30 11:14:24;;;;;;;;;67.50;52.25;;;;;18.60;65.40;99997.03;5029277;28;45469;-68
2022/03/30 11:16:55;;;;;;;;;65.75;49.50;;;;;18.76;64.15;99997.38;5029104;28;46238;-68
2022/03/30 11:19:28;;;;;;;;;70.25;52.75;;;;;18.88;64.58;99996.28;5029277;28;45892;-69